sensor_id;sensor_type;location;lat;lon;timestamp;P1;durP1;ratioP1;P2;durP2;ratioP2
50569;SDS011;36525;49.398;7.614;2023-02-21T00:01:42;17.23;;;6.45;;
50569;SDS011;36525;49.398;7.614;2023-02-21T00:04:27;21.17;;;8.63;;
50569;SDS011;36525;49.398;7.614;2023-02-21T00:07:13;32.15;;;16.20;;
50569;SDS011;36525;49.398;7.614;2023-02-21T00:09:58;18.73;;;7.90;;
50569;SDS011;36525;49.398;7.614;2023-02-21T00:12:43;31.15;;;14.35;;
50569;SDS011;36525;49.398;7.614;2023-02-21T00:15:29;32.85;;;11.90;;
50569;SDS011;36525;49.398;7.614;2023-02-21T00:18:14;36.70;;;16.27;;
50569;SDS011;36525;49.398;7.614;2023-02-21T00:21:00;28.95;;;12.02;;
50569;SDS011;36525;49.398;7.614;2023-02-21T00:23:46;29.65;;;12.73;;
50569;SDS011;36525;49.398;7.614;2023-02-21T00:26:31;37.08;;;17.48;;
50569;SDS011;36525;49.398;7.614;2023-02-21T00:29:16;30.30;;;12.50;;
50569;SDS011;36525;49.398;7.614;2023-02-21T00:32:02;20.10;;;8.50;;
50569;SDS011;36525;49.398;7.614;2023-02-21T00:34:47;32.28;;;18.95;;
50569;SDS011;36525;49.398;7.614;2023-02-21T00:37:33;22.63;;;10.50;;
50569;SDS011;36525;49.398;7.614;2023-02-21T00:40:19;29.60;;;15.60;;
50569;SDS011;36525;49.398;7.614;2023-02-21T00:43:05;25.70;;;15.07;;
50569;SDS011;36525;49.398;7.614;2023-02-21T00:45:50;33.42;;;20.17;;
50569;SDS011;36525;49.398;7.614;2023-02-21T00:48:36;35.28;;;17.88;;
50569;SDS011;36525;49.398;7.614;2023-02-21T00:51:21;40.97;;;25.33;;
50569;SDS011;36525;49.398;7.614;2023-02-21T00:54:07;76.32;;;41.58;;
50569;SDS011;36525;49.398;7.614;2023-02-21T00:56:52;48.75;;;28.00;;
50569;SDS011;36525;49.398;7.614;2023-02-21T00:59:38;25.85;;;12.45;;
50569;SDS011;36525;49.398;7.614;2023-02-21T01:02:24;62.45;;;36.60;;
50569;SDS011;36525;49.398;7.614;2023-02-21T01:05:09;17.80;;;8.20;;
50569;SDS011;36525;49.398;7.614;2023-02-21T01:07:55;48.53;;;26.70;;
50569;SDS011;36525;49.398;7.614;2023-02-21T01:10:40;28.42;;;13.55;;
50569;SDS011;36525;49.398;7.614;2023-02-21T01:13:25;18.38;;;7.10;;
50569;SDS011;36525;49.398;7.614;2023-02-21T01:16:11;11.73;;;7.10;;
50569;SDS011;36525;49.398;7.614;2023-02-21T01:18:56;16.65;;;7.13;;
50569;SDS011;36525;49.398;7.614;2023-02-21T01:21:41;16.70;;;6.47;;
50569;SDS011;36525;49.398;7.614;2023-02-21T01:24:27;19.55;;;7.43;;
50569;SDS011;36525;49.398;7.614;2023-02-21T01:27:12;15.00;;;6.85;;
50569;SDS011;36525;49.398;7.614;2023-02-21T01:29:58;12.65;;;6.60;;
50569;SDS011;36525;49.398;7.614;2023-02-21T01:32:44;16.55;;;6.40;;
50569;SDS011;36525;49.398;7.614;2023-02-21T01:35:29;14.23;;;6.15;;
50569;SDS011;36525;49.398;7.614;2023-02-21T01:38:14;14.65;;;5.95;;
50569;SDS011;36525;49.398;7.614;2023-02-21T01:41:00;17.95;;;6.75;;
50569;SDS011;36525;49.398;7.614;2023-02-21T01:43:59;12.05;;;6.97;;
50569;SDS011;36525;49.398;7.614;2023-02-21T01:46:47;18.58;;;6.95;;
50569;SDS011;36525;49.398;7.614;2023-02-21T01:49:34;15.95;;;6.57;;
50569;SDS011;36525;49.398;7.614;2023-02-21T01:52:23;20.67;;;7.45;;
50569;SDS011;36525;49.398;7.614;2023-02-21T01:55:09;15.05;;;6.53;;
50569;SDS011;36525;49.398;7.614;2023-02-21T01:57:56;16.77;;;7.28;;
50569;SDS011;36525;49.398;7.614;2023-02-21T02:00:42;17.90;;;8.02;;
50569;SDS011;36525;49.398;7.614;2023-02-21T02:03:29;15.82;;;7.28;;
50569;SDS011;36525;49.398;7.614;2023-02-21T02:06:18;17.50;;;7.43;;
50569;SDS011;36525;49.398;7.614;2023-02-21T02:09:14;15.40;;;7.10;;
50569;SDS011;36525;49.398;7.614;2023-02-21T02:15:33;17.50;;;7.90;;
50569;SDS011;36525;49.398;7.614;2023-02-21T02:21:41;14.07;;;7.57;;
50569;SDS011;36525;49.398;7.614;2023-02-21T02:27:48;14.48;;;7.43;;
50569;SDS011;36525;49.398;7.614;2023-02-21T02:33:37;14.63;;;8.18;;
50569;SDS011;36525;49.398;7.614;2023-02-21T02:39:04;17.08;;;8.02;;
50569;SDS011;36525;49.398;7.614;2023-02-21T02:44:49;16.85;;;7.65;;
50569;SDS011;36525;49.398;7.614;2023-02-21T02:47:33;18.52;;;8.25;;
50569;SDS011;36525;49.398;7.614;2023-02-21T02:50:04;11.70;;;7.25;;
50569;SDS011;36525;49.398;7.614;2023-02-21T02:52:33;15.23;;;8.45;;
50569;SDS011;36525;49.398;7.614;2023-02-21T02:55:19;15.23;;;8.43;;
50569;SDS011;36525;49.398;7.614;2023-02-21T02:57:58;15.25;;;8.30;;
50569;SDS011;36525;49.398;7.614;2023-02-21T03:00:26;17.08;;;9.05;;
50569;SDS011;36525;49.398;7.614;2023-02-21T03:06:17;14.98;;;8.23;;
50569;SDS011;36525;49.398;7.614;2023-02-21T03:09:03;19.80;;;9.98;;
50569;SDS011;36525;49.398;7.614;2023-02-21T03:11:42;21.13;;;9.02;;
50569;SDS011;36525;49.398;7.614;2023-02-21T03:14:26;17.50;;;8.60;;
50569;SDS011;36525;49.398;7.614;2023-02-21T03:17:03;19.95;;;9.40;;
50569;SDS011;36525;49.398;7.614;2023-02-21T03:19:36;17.73;;;8.82;;
50569;SDS011;36525;49.398;7.614;2023-02-21T03:22:07;17.17;;;9.20;;
50569;SDS011;36525;49.398;7.614;2023-02-21T03:24:39;13.35;;;9.02;;
50569;SDS011;36525;49.398;7.614;2023-02-21T03:27:09;19.85;;;10.60;;
50569;SDS011;36525;49.398;7.614;2023-02-21T03:29:38;20.08;;;10.30;;
50569;SDS011;36525;49.398;7.614;2023-02-21T03:32:14;14.38;;;8.50;;
50569;SDS011;36525;49.398;7.614;2023-02-21T03:34:51;21.60;;;9.93;;
50569;SDS011;36525;49.398;7.614;2023-02-21T03:37:28;19.30;;;9.68;;
50569;SDS011;36525;49.398;7.614;2023-02-21T03:40:07;21.02;;;11.43;;
50569;SDS011;36525;49.398;7.614;2023-02-21T03:42:55;22.48;;;12.30;;
50569;SDS011;36525;49.398;7.614;2023-02-21T03:45:25;14.15;;;8.90;;
50569;SDS011;36525;49.398;7.614;2023-02-21T03:47:52;14.65;;;8.82;;
50569;SDS011;36525;49.398;7.614;2023-02-21T03:50:19;15.75;;;9.25;;
50569;SDS011;36525;49.398;7.614;2023-02-21T03:52:46;17.42;;;10.20;;
50569;SDS011;36525;49.398;7.614;2023-02-21T03:55:13;20.27;;;9.98;;
50569;SDS011;36525;49.398;7.614;2023-02-21T03:57:41;17.58;;;10.70;;
50569;SDS011;36525;49.398;7.614;2023-02-21T04:00:12;19.70;;;10.68;;
50569;SDS011;36525;49.398;7.614;2023-02-21T04:02:40;18.52;;;10.77;;
50569;SDS011;36525;49.398;7.614;2023-02-21T04:05:07;19.52;;;10.18;;
50569;SDS011;36525;49.398;7.614;2023-02-21T04:07:34;17.40;;;9.77;;
50569;SDS011;36525;49.398;7.614;2023-02-21T04:10:01;17.17;;;10.55;;
50569;SDS011;36525;49.398;7.614;2023-02-21T04:12:29;22.20;;;11.48;;
50569;SDS011;36525;49.398;7.614;2023-02-21T04:14:56;18.70;;;12.20;;
50569;SDS011;36525;49.398;7.614;2023-02-21T04:17:24;17.30;;;10.65;;
50569;SDS011;36525;49.398;7.614;2023-02-21T04:19:51;20.38;;;11.43;;
50569;SDS011;36525;49.398;7.614;2023-02-21T04:22:18;25.88;;;12.80;;
50569;SDS011;36525;49.398;7.614;2023-02-21T04:24:45;20.80;;;12.55;;
50569;SDS011;36525;49.398;7.614;2023-02-21T04:27:13;21.95;;;11.30;;
50569;SDS011;36525;49.398;7.614;2023-02-21T04:29:41;25.92;;;13.05;;
50569;SDS011;36525;49.398;7.614;2023-02-21T04:32:08;14.80;;;10.45;;
50569;SDS011;36525;49.398;7.614;2023-02-21T04:34:36;18.25;;;11.25;;
50569;SDS011;36525;49.398;7.614;2023-02-21T04:37:03;21.13;;;11.65;;
50569;SDS011;36525;49.398;7.614;2023-02-21T04:39:30;21.98;;;11.00;;
50569;SDS011;36525;49.398;7.614;2023-02-21T04:41:57;15.80;;;10.20;;
50569;SDS011;36525;49.398;7.614;2023-02-21T04:44:24;20.50;;;12.68;;
50569;SDS011;36525;49.398;7.614;2023-02-21T04:46:51;18.48;;;11.10;;
50569;SDS011;36525;49.398;7.614;2023-02-21T04:49:18;22.80;;;12.45;;
50569;SDS011;36525;49.398;7.614;2023-02-21T04:51:45;20.42;;;12.05;;
50569;SDS011;36525;49.398;7.614;2023-02-21T04:54:12;22.77;;;11.77;;
50569;SDS011;36525;49.398;7.614;2023-02-21T04:56:39;18.17;;;11.52;;
50569;SDS011;36525;49.398;7.614;2023-02-21T04:59:06;20.48;;;11.35;;
50569;SDS011;36525;49.398;7.614;2023-02-21T05:01:33;22.30;;;11.98;;
50569;SDS011;36525;49.398;7.614;2023-02-21T05:04:00;22.67;;;12.48;;
50569;SDS011;36525;49.398;7.614;2023-02-21T05:06:28;20.08;;;11.82;;
50569;SDS011;36525;49.398;7.614;2023-02-21T05:08:57;17.77;;;11.77;;
50569;SDS011;36525;49.398;7.614;2023-02-21T05:11:24;25.75;;;12.32;;
50569;SDS011;36525;49.398;7.614;2023-02-21T05:13:53;27.08;;;13.73;;
50569;SDS011;36525;49.398;7.614;2023-02-21T05:16:20;31.55;;;19.13;;
50569;SDS011;36525;49.398;7.614;2023-02-21T05:18:50;37.88;;;20.17;;
50569;SDS011;36525;49.398;7.614;2023-02-21T05:21:18;40.80;;;20.15;;
50569;SDS011;36525;49.398;7.614;2023-02-21T05:23:45;40.67;;;21.83;;
50569;SDS011;36525;49.398;7.614;2023-02-21T05:26:23;36.53;;;20.73;;
50569;SDS011;36525;49.398;7.614;2023-02-21T05:28:53;31.23;;;17.80;;
50569;SDS011;36525;49.398;7.614;2023-02-21T05:31:23;24.90;;;13.38;;
50569;SDS011;36525;49.398;7.614;2023-02-21T05:33:50;26.65;;;14.43;;
50569;SDS011;36525;49.398;7.614;2023-02-21T05:36:17;22.13;;;13.50;;
50569;SDS011;36525;49.398;7.614;2023-02-21T05:38:45;27.38;;;15.80;;
50569;SDS011;36525;49.398;7.614;2023-02-21T05:41:16;26.80;;;14.07;;
50569;SDS011;36525;49.398;7.614;2023-02-21T05:43:47;21.58;;;14.52;;
50569;SDS011;36525;49.398;7.614;2023-02-21T05:46:16;23.35;;;13.95;;
50569;SDS011;36525;49.398;7.614;2023-02-21T05:48:58;23.48;;;13.98;;
50569;SDS011;36525;49.398;7.614;2023-02-21T05:51:40;27.45;;;13.63;;
50569;SDS011;36525;49.398;7.614;2023-02-21T05:54:10;26.42;;;15.20;;
50569;SDS011;36525;49.398;7.614;2023-02-21T05:56:43;28.15;;;15.82;;
50569;SDS011;36525;49.398;7.614;2023-02-21T05:59:12;27.70;;;14.73;;
50569;SDS011;36525;49.398;7.614;2023-02-21T06:01:42;21.75;;;13.20;;
50569;SDS011;36525;49.398;7.614;2023-02-21T06:04:09;23.50;;;13.27;;
50569;SDS011;36525;49.398;7.614;2023-02-21T06:06:36;26.27;;;15.35;;
50569;SDS011;36525;49.398;7.614;2023-02-21T06:09:04;23.27;;;14.07;;
50569;SDS011;36525;49.398;7.614;2023-02-21T06:11:32;24.30;;;14.32;;
50569;SDS011;36525;49.398;7.614;2023-02-21T06:14:03;22.60;;;13.43;;
50569;SDS011;36525;49.398;7.614;2023-02-21T06:16:43;24.48;;;14.27;;
50569;SDS011;36525;49.398;7.614;2023-02-21T06:19:10;23.60;;;15.15;;
50569;SDS011;36525;49.398;7.614;2023-02-21T06:21:39;26.77;;;14.30;;
50569;SDS011;36525;49.398;7.614;2023-02-21T06:24:08;29.15;;;15.20;;
50569;SDS011;36525;49.398;7.614;2023-02-21T06:26:36;24.75;;;15.77;;
50569;SDS011;36525;49.398;7.614;2023-02-21T06:29:04;28.13;;;14.88;;
50569;SDS011;36525;49.398;7.614;2023-02-21T06:31:31;23.65;;;14.85;;
50569;SDS011;36525;49.398;7.614;2023-02-21T06:33:58;33.70;;;20.13;;
50569;SDS011;36525;49.398;7.614;2023-02-21T06:36:26;38.28;;;22.58;;
50569;SDS011;36525;49.398;7.614;2023-02-21T06:38:55;38.65;;;23.13;;
50569;SDS011;36525;49.398;7.614;2023-02-21T06:41:24;39.33;;;22.55;;
50569;SDS011;36525;49.398;7.614;2023-02-21T06:43:55;39.63;;;20.88;;
50569;SDS011;36525;49.398;7.614;2023-02-21T06:46:24;35.60;;;21.13;;
50569;SDS011;36525;49.398;7.614;2023-02-21T06:48:55;30.35;;;17.30;;
50569;SDS011;36525;49.398;7.614;2023-02-21T06:51:22;32.15;;;18.55;;
50569;SDS011;36525;49.398;7.614;2023-02-21T06:53:55;34.40;;;19.00;;
50569;SDS011;36525;49.398;7.614;2023-02-21T06:56:23;35.45;;;21.67;;
50569;SDS011;36525;49.398;7.614;2023-02-21T06:58:52;46.70;;;23.33;;
50569;SDS011;36525;49.398;7.614;2023-02-21T07:01:19;52.45;;;30.45;;
50569;SDS011;36525;49.398;7.614;2023-02-21T07:03:46;51.35;;;28.13;;
50569;SDS011;36525;49.398;7.614;2023-02-21T07:06:13;48.03;;;29.67;;
50569;SDS011;36525;49.398;7.614;2023-02-21T07:08:40;46.70;;;26.98;;
50569;SDS011;36525;49.398;7.614;2023-02-21T07:11:08;35.10;;;21.65;;
50569;SDS011;36525;49.398;7.614;2023-02-21T07:13:35;32.55;;;22.00;;
50569;SDS011;36525;49.398;7.614;2023-02-21T07:16:02;32.53;;;20.83;;
50569;SDS011;36525;49.398;7.614;2023-02-21T07:18:33;32.85;;;20.42;;
50569;SDS011;36525;49.398;7.614;2023-02-21T07:21:00;25.13;;;15.57;;
50569;SDS011;36525;49.398;7.614;2023-02-21T07:23:27;29.15;;;18.45;;
50569;SDS011;36525;49.398;7.614;2023-02-21T07:25:54;29.98;;;18.65;;
50569;SDS011;36525;49.398;7.614;2023-02-21T07:28:21;33.25;;;19.55;;
50569;SDS011;36525;49.398;7.614;2023-02-21T07:30:48;34.50;;;19.85;;
50569;SDS011;36525;49.398;7.614;2023-02-21T07:33:15;28.20;;;17.63;;
50569;SDS011;36525;49.398;7.614;2023-02-21T07:35:42;34.78;;;20.48;;
50569;SDS011;36525;49.398;7.614;2023-02-21T07:38:27;38.97;;;21.50;;
50569;SDS011;36525;49.398;7.614;2023-02-21T07:41:00;28.65;;;18.95;;
50569;SDS011;36525;49.398;7.614;2023-02-21T07:43:28;27.20;;;18.20;;
50569;SDS011;36525;49.398;7.614;2023-02-21T07:45:56;28.00;;;16.23;;
50569;SDS011;36525;49.398;7.614;2023-02-21T07:48:23;35.50;;;20.80;;
50569;SDS011;36525;49.398;7.614;2023-02-21T07:50:51;33.63;;;18.55;;
50569;SDS011;36525;49.398;7.614;2023-02-21T07:53:18;32.63;;;19.70;;
50569;SDS011;36525;49.398;7.614;2023-02-21T07:55:45;30.38;;;18.50;;
50569;SDS011;36525;49.398;7.614;2023-02-21T07:58:12;27.80;;;18.52;;
50569;SDS011;36525;49.398;7.614;2023-02-21T08:00:39;28.08;;;17.08;;
50569;SDS011;36525;49.398;7.614;2023-02-21T08:03:06;32.72;;;17.52;;
50569;SDS011;36525;49.398;7.614;2023-02-21T08:05:34;30.33;;;18.80;;
50569;SDS011;36525;49.398;7.614;2023-02-21T08:08:02;25.77;;;17.73;;
50569;SDS011;36525;49.398;7.614;2023-02-21T08:10:29;26.70;;;18.33;;
50569;SDS011;36525;49.398;7.614;2023-02-21T08:12:55;25.35;;;18.27;;
50569;SDS011;36525;49.398;7.614;2023-02-21T08:15:23;21.98;;;15.60;;
50569;SDS011;36525;49.398;7.614;2023-02-21T08:17:50;25.77;;;14.88;;
50569;SDS011;36525;49.398;7.614;2023-02-21T08:20:17;27.00;;;18.15;;
50569;SDS011;36525;49.398;7.614;2023-02-21T08:22:45;25.17;;;13.80;;
50569;SDS011;36525;49.398;7.614;2023-02-21T08:25:13;19.30;;;12.43;;
50569;SDS011;36525;49.398;7.614;2023-02-21T08:27:42;19.63;;;13.18;;
50569;SDS011;36525;49.398;7.614;2023-02-21T08:30:11;26.48;;;14.13;;
50569;SDS011;36525;49.398;7.614;2023-02-21T08:32:40;22.80;;;14.85;;
50569;SDS011;36525;49.398;7.614;2023-02-21T08:35:07;21.67;;;14.45;;
50569;SDS011;36525;49.398;7.614;2023-02-21T08:37:42;20.17;;;13.32;;
50569;SDS011;36525;49.398;7.614;2023-02-21T08:40:13;21.92;;;13.93;;
50569;SDS011;36525;49.398;7.614;2023-02-21T08:42:41;23.08;;;14.32;;
50569;SDS011;36525;49.398;7.614;2023-02-21T08:45:10;23.27;;;14.75;;
50569;SDS011;36525;49.398;7.614;2023-02-21T08:47:43;23.50;;;14.15;;
50569;SDS011;36525;49.398;7.614;2023-02-21T08:50:11;19.92;;;14.05;;
50569;SDS011;36525;49.398;7.614;2023-02-21T08:52:38;22.77;;;14.32;;
50569;SDS011;36525;49.398;7.614;2023-02-21T08:55:06;28.30;;;16.83;;
50569;SDS011;36525;49.398;7.614;2023-02-21T08:57:33;26.30;;;15.82;;
50569;SDS011;36525;49.398;7.614;2023-02-21T09:00:00;28.77;;;15.93;;
50569;SDS011;36525;49.398;7.614;2023-02-21T09:02:31;28.92;;;17.02;;
50569;SDS011;36525;49.398;7.614;2023-02-21T09:04:58;27.30;;;15.38;;
50569;SDS011;36525;49.398;7.614;2023-02-21T09:07:25;23.38;;;15.23;;
50569;SDS011;36525;49.398;7.614;2023-02-21T09:09:53;28.80;;;16.90;;
50569;SDS011;36525;49.398;7.614;2023-02-21T09:12:20;29.48;;;19.27;;
50569;SDS011;36525;49.398;7.614;2023-02-21T09:14:47;27.70;;;19.13;;
50569;SDS011;36525;49.398;7.614;2023-02-21T09:17:14;26.25;;;17.17;;
50569;SDS011;36525;49.398;7.614;2023-02-21T09:19:41;29.20;;;18.13;;
50569;SDS011;36525;49.398;7.614;2023-02-21T09:22:10;30.10;;;18.83;;
50569;SDS011;36525;49.398;7.614;2023-02-21T09:24:37;27.25;;;18.45;;
50569;SDS011;36525;49.398;7.614;2023-02-21T09:27:04;27.45;;;18.42;;
50569;SDS011;36525;49.398;7.614;2023-02-21T09:29:32;25.50;;;17.48;;
50569;SDS011;36525;49.398;7.614;2023-02-21T09:32:11;26.88;;;17.33;;
50569;SDS011;36525;49.398;7.614;2023-02-21T09:34:39;28.33;;;17.45;;
50569;SDS011;36525;49.398;7.614;2023-02-21T09:37:07;31.67;;;20.02;;
50569;SDS011;36525;49.398;7.614;2023-02-21T09:39:36;30.10;;;19.55;;
50569;SDS011;36525;49.398;7.614;2023-02-21T09:42:04;28.00;;;18.23;;
50569;SDS011;36525;49.398;7.614;2023-02-21T09:44:31;28.88;;;19.02;;
50569;SDS011;36525;49.398;7.614;2023-02-21T09:47:03;33.70;;;18.50;;
50569;SDS011;36525;49.398;7.614;2023-02-21T09:49:34;27.80;;;17.50;;
50569;SDS011;36525;49.398;7.614;2023-02-21T09:52:06;28.60;;;18.30;;
50569;SDS011;36525;49.398;7.614;2023-02-21T09:57:51;29.20;;;17.73;;
50569;SDS011;36525;49.398;7.614;2023-02-21T10:00:40;26.15;;;17.65;;
50569;SDS011;36525;49.398;7.614;2023-02-21T10:09:17;23.13;;;16.13;;
50569;SDS011;36525;49.398;7.614;2023-02-21T10:13:03;22.08;;;15.18;;
50569;SDS011;36525;49.398;7.614;2023-02-21T10:16:06;29.33;;;16.88;;
50569;SDS011;36525;49.398;7.614;2023-02-21T10:21:49;27.67;;;15.65;;
50569;SDS011;36525;49.398;7.614;2023-02-21T10:24:21;24.17;;;15.40;;
50569;SDS011;36525;49.398;7.614;2023-02-21T10:29:50;20.80;;;13.48;;
50569;SDS011;36525;49.398;7.614;2023-02-21T10:32:22;19.13;;;12.75;;
50569;SDS011;36525;49.398;7.614;2023-02-21T10:34:51;18.55;;;12.20;;
50569;SDS011;36525;49.398;7.614;2023-02-21T10:40:21;24.55;;;14.02;;
50569;SDS011;36525;49.398;7.614;2023-02-21T10:45:48;36.63;;;22.20;;
50569;SDS011;36525;49.398;7.614;2023-02-21T10:48:53;31.45;;;19.98;;
50569;SDS011;36525;49.398;7.614;2023-02-21T10:51:31;31.55;;;17.65;;
50569;SDS011;36525;49.398;7.614;2023-02-21T10:54:19;25.90;;;15.80;;
50569;SDS011;36525;49.398;7.614;2023-02-21T10:56:49;20.20;;;13.15;;
50569;SDS011;36525;49.398;7.614;2023-02-21T10:59:26;19.58;;;12.80;;
50569;SDS011;36525;49.398;7.614;2023-02-21T11:02:08;20.30;;;13.10;;
50569;SDS011;36525;49.398;7.614;2023-02-21T11:05:15;17.20;;;11.90;;
50569;SDS011;36525;49.398;7.614;2023-02-21T11:08:06;19.23;;;12.57;;
50569;SDS011;36525;49.398;7.614;2023-02-21T11:15:43;15.32;;;9.52;;
50569;SDS011;36525;49.398;7.614;2023-02-21T11:20:48;13.75;;;8.02;;
50569;SDS011;36525;49.398;7.614;2023-02-21T11:23:28;14.82;;;8.00;;
50569;SDS011;36525;49.398;7.614;2023-02-21T11:26:04;12.90;;;7.47;;
50569;SDS011;36525;49.398;7.614;2023-02-21T11:28:35;12.02;;;6.78;;
50569;SDS011;36525;49.398;7.614;2023-02-21T11:34:02;16.20;;;9.70;;
50569;SDS011;36525;49.398;7.614;2023-02-21T11:36:33;17.50;;;9.82;;
50569;SDS011;36525;49.398;7.614;2023-02-21T11:39:21;19.40;;;10.90;;
50569;SDS011;36525;49.398;7.614;2023-02-21T11:41:55;11.80;;;6.40;;
50569;SDS011;36525;49.398;7.614;2023-02-21T11:44:32;12.07;;;6.65;;
50569;SDS011;36525;49.398;7.614;2023-02-21T11:55:22;14.77;;;8.20;;
50569;SDS011;36525;49.398;7.614;2023-02-21T12:01:04;9.82;;;6.35;;
50569;SDS011;36525;49.398;7.614;2023-02-21T12:03:49;11.57;;;5.60;;
50569;SDS011;36525;49.398;7.614;2023-02-21T12:17:59;9.43;;;5.70;;
50569;SDS011;36525;49.398;7.614;2023-02-21T12:24:23;7.28;;;3.75;;
50569;SDS011;36525;49.398;7.614;2023-02-21T12:27:22;7.75;;;4.25;;
50569;SDS011;36525;49.398;7.614;2023-02-21T12:30:17;14.45;;;6.35;;
50569;SDS011;36525;49.398;7.614;2023-02-21T12:39:10;6.25;;;3.58;;
50569;SDS011;36525;49.398;7.614;2023-02-21T12:47:25;6.28;;;2.63;;
50569;SDS011;36525;49.398;7.614;2023-02-21T12:50:17;4.10;;;2.10;;
50569;SDS011;36525;49.398;7.614;2023-02-21T12:53:06;8.48;;;5.10;;
50569;SDS011;36525;49.398;7.614;2023-02-21T12:55:44;10.90;;;4.45;;
50569;SDS011;36525;49.398;7.614;2023-02-21T13:03:59;5.95;;;2.33;;
50569;SDS011;36525;49.398;7.614;2023-02-21T13:06:56;7.63;;;3.28;;
50569;SDS011;36525;49.398;7.614;2023-02-21T13:09:53;5.25;;;2.03;;
50569;SDS011;36525;49.398;7.614;2023-02-21T13:12:56;8.40;;;3.15;;
50569;SDS011;36525;49.398;7.614;2023-02-21T13:15:45;4.72;;;2.00;;
50569;SDS011;36525;49.398;7.614;2023-02-21T13:18:19;11.23;;;5.47;;
50569;SDS011;36525;49.398;7.614;2023-02-21T13:20:55;10.15;;;5.22;;
50569;SDS011;36525;49.398;7.614;2023-02-21T13:32:59;6.35;;;2.60;;
50569;SDS011;36525;49.398;7.614;2023-02-21T13:35:36;4.68;;;2.20;;
50569;SDS011;36525;49.398;7.614;2023-02-21T13:38:05;5.65;;;2.08;;
50569;SDS011;36525;49.398;7.614;2023-02-21T13:40:41;4.15;;;1.95;;
50569;SDS011;36525;49.398;7.614;2023-02-21T13:43:20;4.45;;;1.80;;
50569;SDS011;36525;49.398;7.614;2023-02-21T13:45:54;6.18;;;1.63;;
50569;SDS011;36525;49.398;7.614;2023-02-21T13:52:14;2.25;;;1.02;;
50569;SDS011;36525;49.398;7.614;2023-02-21T13:57:50;3.47;;;1.50;;
50569;SDS011;36525;49.398;7.614;2023-02-21T14:06:32;3.15;;;1.50;;
50569;SDS011;36525;49.398;7.614;2023-02-21T14:08:40;3.50;;;1.30;;
50569;SDS011;36525;49.398;7.614;2023-02-21T14:11:19;2.83;;;1.20;;
50569;SDS011;36525;49.398;7.614;2023-02-21T14:13:54;3.80;;;1.40;;
50569;SDS011;36525;49.398;7.614;2023-02-21T14:16:28;3.17;;;1.10;;
50569;SDS011;36525;49.398;7.614;2023-02-21T14:19:09;1.67;;;0.80;;
50569;SDS011;36525;49.398;7.614;2023-02-21T14:21:46;4.72;;;1.50;;
50569;SDS011;36525;49.398;7.614;2023-02-21T14:24:27;5.63;;;1.58;;
50569;SDS011;36525;49.398;7.614;2023-02-21T14:27:01;3.67;;;1.08;;
50569;SDS011;36525;49.398;7.614;2023-02-21T14:29:42;3.78;;;1.10;;
50569;SDS011;36525;49.398;7.614;2023-02-21T14:32:46;4.40;;;1.23;;
50569;SDS011;36525;49.398;7.614;2023-02-21T14:38:16;2.47;;;0.98;;
50569;SDS011;36525;49.398;7.614;2023-02-21T14:40:57;3.65;;;1.08;;
50569;SDS011;36525;49.398;7.614;2023-02-21T14:50:06;4.97;;;1.48;;
50569;SDS011;36525;49.398;7.614;2023-02-21T14:55:56;3.83;;;0.95;;
50569;SDS011;36525;49.398;7.614;2023-02-21T15:04:53;4.60;;;1.70;;
50569;SDS011;36525;49.398;7.614;2023-02-21T15:07:58;4.68;;;1.40;;
50569;SDS011;36525;49.398;7.614;2023-02-21T15:10:41;4.28;;;1.70;;
50569;SDS011;36525;49.398;7.614;2023-02-21T15:13:26;3.97;;;1.37;;
50569;SDS011;36525;49.398;7.614;2023-02-21T15:16:02;6.15;;;2.35;;
50569;SDS011;36525;49.398;7.614;2023-02-21T15:18:35;4.45;;;2.10;;
50569;SDS011;36525;49.398;7.614;2023-02-21T15:23:45;4.05;;;1.20;;
50569;SDS011;36525;49.398;7.614;2023-02-21T15:26:23;3.00;;;1.25;;
50569;SDS011;36525;49.398;7.614;2023-02-21T15:29:03;2.97;;;1.15;;
50569;SDS011;36525;49.398;7.614;2023-02-21T15:34:19;4.53;;;1.33;;
50569;SDS011;36525;49.398;7.614;2023-02-21T15:36:55;4.00;;;1.65;;
50569;SDS011;36525;49.398;7.614;2023-02-21T15:39:33;4.00;;;1.48;;
50569;SDS011;36525;49.398;7.614;2023-02-21T15:42:04;4.13;;;1.60;;
50569;SDS011;36525;49.398;7.614;2023-02-21T15:44:36;4.75;;;1.40;;
50569;SDS011;36525;49.398;7.614;2023-02-21T15:47:20;3.85;;;1.27;;
50569;SDS011;36525;49.398;7.614;2023-02-21T15:49:59;3.40;;;1.33;;
50569;SDS011;36525;49.398;7.614;2023-02-21T16:00:35;6.75;;;3.28;;
50569;SDS011;36525;49.398;7.614;2023-02-21T16:06:22;11.60;;;4.60;;
50569;SDS011;36525;49.398;7.614;2023-02-21T16:14:44;8.77;;;5.07;;
50569;SDS011;36525;49.398;7.614;2023-02-21T16:19:48;6.30;;;3.33;;
50569;SDS011;36525;49.398;7.614;2023-02-21T16:25:24;12.65;;;6.25;;
50569;SDS011;36525;49.398;7.614;2023-02-21T16:27:57;17.50;;;10.73;;
50569;SDS011;36525;49.398;7.614;2023-02-21T16:30:29;16.88;;;11.40;;
50569;SDS011;36525;49.398;7.614;2023-02-21T16:32:59;14.77;;;8.88;;
50569;SDS011;36525;49.398;7.614;2023-02-21T16:35:31;10.60;;;3.50;;
50569;SDS011;36525;49.398;7.614;2023-02-21T16:37:59;13.68;;;7.30;;
50569;SDS011;36525;49.398;7.614;2023-02-21T16:40:28;12.13;;;8.18;;
50569;SDS011;36525;49.398;7.614;2023-02-21T16:42:59;11.52;;;7.68;;
50569;SDS011;36525;49.398;7.614;2023-02-21T16:45:28;13.65;;;7.15;;
50569;SDS011;36525;49.398;7.614;2023-02-21T16:47:58;14.45;;;6.97;;
50569;SDS011;36525;49.398;7.614;2023-02-21T16:50:32;9.43;;;4.90;;
50569;SDS011;36525;49.398;7.614;2023-02-21T16:53:04;8.30;;;4.82;;
50569;SDS011;36525;49.398;7.614;2023-02-21T16:55:32;8.52;;;4.82;;
50569;SDS011;36525;49.398;7.614;2023-02-21T16:58:03;9.05;;;5.78;;
50569;SDS011;36525;49.398;7.614;2023-02-21T17:00:34;10.93;;;5.93;;
50569;SDS011;36525;49.398;7.614;2023-02-21T17:03:01;11.45;;;5.55;;
50569;SDS011;36525;49.398;7.614;2023-02-21T17:05:28;6.38;;;3.05;;
50569;SDS011;36525;49.398;7.614;2023-02-21T17:07:55;6.65;;;2.85;;
50569;SDS011;36525;49.398;7.614;2023-02-21T17:10:25;5.22;;;2.60;;
50569;SDS011;36525;49.398;7.614;2023-02-21T17:12:52;4.10;;;1.88;;
50569;SDS011;36525;49.398;7.614;2023-02-21T17:15:19;5.80;;;2.15;;
50569;SDS011;36525;49.398;7.614;2023-02-21T17:17:46;5.18;;;2.72;;
50569;SDS011;36525;49.398;7.614;2023-02-21T17:20:18;4.40;;;1.80;;
50569;SDS011;36525;49.398;7.614;2023-02-21T17:22:48;3.70;;;1.90;;
50569;SDS011;36525;49.398;7.614;2023-02-21T17:25:16;5.28;;;1.70;;
50569;SDS011;36525;49.398;7.614;2023-02-21T17:27:45;5.15;;;1.70;;
50569;SDS011;36525;49.398;7.614;2023-02-21T17:30:14;4.45;;;1.75;;
50569;SDS011;36525;49.398;7.614;2023-02-21T17:32:43;3.75;;;1.55;;
50569;SDS011;36525;49.398;7.614;2023-02-21T17:35:12;3.85;;;1.60;;
50569;SDS011;36525;49.398;7.614;2023-02-21T17:37:42;3.50;;;1.27;;
50569;SDS011;36525;49.398;7.614;2023-02-21T17:40:10;4.53;;;1.30;;
50569;SDS011;36525;49.398;7.614;2023-02-21T17:42:37;4.65;;;1.55;;
50569;SDS011;36525;49.398;7.614;2023-02-21T17:45:05;7.97;;;1.90;;
50569;SDS011;36525;49.398;7.614;2023-02-21T17:47:32;5.65;;;1.98;;
50569;SDS011;36525;49.398;7.614;2023-02-21T17:50:00;6.70;;;2.63;;
50569;SDS011;36525;49.398;7.614;2023-02-21T17:52:30;5.63;;;2.33;;
50569;SDS011;36525;49.398;7.614;2023-02-21T17:54:57;5.90;;;2.20;;
50569;SDS011;36525;49.398;7.614;2023-02-21T17:57:24;5.18;;;1.75;;
50569;SDS011;36525;49.398;7.614;2023-02-21T17:59:51;8.25;;;1.90;;
50569;SDS011;36525;49.398;7.614;2023-02-21T18:02:18;5.40;;;1.88;;